Oakland, NJ (07436)

11:17 AM EDT on August 22, 2014 (GMT -0400)
KNJOAKLA11 RamapoRiver | Change Station
CLOSE
Current Station
Personal Weather Station
Location: Oakland, NJ
Elevation: 260 ft
Nearby Weather Stations

Elev 260 ft 41.03 °N, 74.24 °W | Updated 2 seconds ago

Overcast
Overcast
66.2 °F
Feels Like 66.2 °F
N
0.0
Wind Variable Wind from NNW
Gusts 1.0 mph

Today
High -- | Low -- °F
--% Chance of Precip.
Yesterday
High -- | Low -- °F
Precip. -- in
6:13 AM 7:45 PM
Waning Crescent, 8% visible
Pressure 30.07 in
Visibility 10.0 miles
Clouds Overcast 2400 ft
Dew Point 64 °F
Humidity 94%
Rainfall 0.07 in
Snow Depth Not available.
UV 2 out of 12
Pollen 5.90 out of 12
Air Quality Not available.
Flu Activity Not available.
METAR KCDW 221353Z 07004KT 10SM OVC024 21/18 A3006 RMK AO2 SLP183 T02060178

More Conditions Fewer Conditions

Pressure 30.07 in
Visibility 10.0 miles
Clouds Overcast 2400 ft
Dew Point 64 °F
Humidity 94%
Rainfall 0.07 in
Snow Depth Not available.
UV 2 out of 12
Pollen 5.90 out of 12
Air Quality Not available.
Flu Activity Not available.
METAR KCDW 221353Z 07004KT 10SM OVC024 21/18 A3006 RMK AO2 SLP183 T02060178

More Conditions Fewer Conditions

10-Day Weather Forecast

Almanac

Astronomy

Aug. 22, 2014 Rise Set
Actual Time 6:13 AM EDT 7:45 PM EDT
Civil Twilight 5:44 AM EDT 8:14 PM EDT
Nautical Twilight 5:09 AM EDT 8:48 PM EDT
Astronomical Twilight 4:32 AM EDT 9:25 PM EDT
Moon 3:33 AM EDT 5:52 PM EDT
Length of Visible Light 14h 29m
Length of Day
13h 31m
Tomorrow will be 2m 31s shorter.
Waning Crescent, 8% of the Moon is Illuminated
Today
Waning Crescent
Aug 25
New
Sep 2
First Quarter
Sep 8
Full
Sep 15
Last Quarter

Today's Extremes

State Highs State Lows

Community

WunderPhotos

Upload Photos

1,746,187 photos uploaded!

WunderBlogs® & News

Nearby

Snow Depth

Station Depth Elevation
No new snow has been reported.

Earthquake Activity

City Distance Mag. Time & Date
No recent earthquake activity has been reported nearby.
Minimum magnitude displayed is 2.5.

Coastal Water Temperatures

Place Temperature
Kings Point, NY 73.0 °F
Bridgeport, CT 73.9 °F

Nearby Weather Stations